createdAt,value
2022-09-12T00:01:50.798Z,42.67
2022-09-12T00:04:17.495Z,44.42
2022-09-12T00:06:44.143Z,45.28
2022-09-12T00:09:14.155Z,43.97
2022-09-12T00:11:44.012Z,52.00
2022-09-12T00:14:13.088Z,48.75
2022-09-12T00:16:39.791Z,44.22
2022-09-12T00:19:07.228Z,47.65
2022-09-12T00:21:35.644Z,47.17
2022-09-12T00:24:02.592Z,47.25
2022-09-12T00:26:29.350Z,41.72
2022-09-12T00:28:55.895Z,49.25
2022-09-12T00:31:24.835Z,49.22
2022-09-12T00:33:52.357Z,46.22
2022-09-12T00:36:21.904Z,46.97
2022-09-12T00:38:49.785Z,47.28
2022-09-12T00:41:21.375Z,50.78
2022-09-12T00:44:02.236Z,46.88
2022-09-12T00:46:28.718Z,45.25
2022-09-12T00:49:03.845Z,53.35
2022-09-12T00:51:33.851Z,51.95
2022-09-12T00:54:06.130Z,51.28
2022-09-12T00:56:33.062Z,51.70
2022-09-12T00:59:06.819Z,57.78
2022-09-12T01:01:33.916Z,52.92
2022-09-12T01:04:01.953Z,54.30
2022-09-12T01:06:33.075Z,57.92
2022-09-12T01:09:03.381Z,45.55
2022-09-12T01:11:32.039Z,45.22
2022-09-12T01:13:59.753Z,66.03
2022-09-12T01:16:26.342Z,48.40
2022-09-12T01:19:12.751Z,51.13
2022-09-12T01:22:16.977Z,57.10
2022-09-12T01:25:08.547Z,58.20
2022-09-12T01:27:54.498Z,60.60
2022-09-12T01:30:47.731Z,53.92
2022-09-12T01:33:23.425Z,52.00
2022-09-12T01:36:07.448Z,60.25
2022-09-12T01:38:39.738Z,52.80
2022-09-12T01:41:28.299Z,55.17
2022-09-12T01:44:12.383Z,53.63
2022-09-12T01:47:08.532Z,58.67
2022-09-12T01:49:46.281Z,54.97
2022-09-12T01:52:33.240Z,55.88
2022-09-12T01:55:38.216Z,51.67
2022-09-12T01:58:31.086Z,52.83
2022-09-12T02:01:13.889Z,50.00
2022-09-12T02:03:52.400Z,62.80
2022-09-12T02:06:23.128Z,46.53
2022-09-12T02:08:54.525Z,50.38
2022-09-12T02:11:21.611Z,55.95
2022-09-12T02:13:59.098Z,56.22
2022-09-12T02:16:37.213Z,51.80
2022-09-12T02:19:11.163Z,49.58
2022-09-12T02:24:08.358Z,53.47
2022-09-12T02:26:41.357Z,57.53
2022-09-12T02:29:08.103Z,55.13
2022-09-12T02:31:45.668Z,55.70
2022-09-12T02:34:39.894Z,58.13
2022-09-12T02:37:21.347Z,62.38
2022-09-12T02:39:47.991Z,65.28
2022-09-12T02:42:14.607Z,52.70
2022-09-12T02:44:41.856Z,58.05
2022-09-12T02:47:12.844Z,61.67
2022-09-12T02:49:39.618Z,65.15
2022-09-12T02:52:07.062Z,60.15
2022-09-12T02:54:33.752Z,59.60
2022-09-12T02:57:00.521Z,57.67
2022-09-12T02:59:27.503Z,64.45
2022-09-12T03:02:03.357Z,60.40
2022-09-12T03:04:54.150Z,55.25
2022-09-12T03:07:39.923Z,56.58
2022-09-12T03:10:33.223Z,57.92
2022-09-12T03:13:38.952Z,64.00
2022-09-12T03:16:44.311Z,61.40
2022-09-12T03:19:35.115Z,57.08
2022-09-12T03:22:15.427Z,67.90
2022-09-12T03:25:10.119Z,66.80
2022-09-12T03:28:08.247Z,57.75
2022-09-12T03:30:48.073Z,65.40
2022-09-12T03:33:20.196Z,50.47
2022-09-12T03:35:47.740Z,57.10
2022-09-12T03:38:15.084Z,65.10
2022-09-12T03:40:42.019Z,64.63
2022-09-12T03:43:09.741Z,55.22
2022-09-12T03:45:37.259Z,64.45
2022-09-12T03:48:05.072Z,59.33
2022-09-12T03:50:31.750Z,62.33
2022-09-12T03:53:02.797Z,55.13
2022-09-12T03:55:29.509Z,66.07
2022-09-12T03:57:56.532Z,71.13
2022-09-12T04:00:24.182Z,67.82
2022-09-12T04:02:55.416Z,65.25
2022-09-12T04:05:22.071Z,62.20
2022-09-12T04:07:48.848Z,68.90
2022-09-12T04:10:16.356Z,67.47
2022-09-12T04:12:43.314Z,61.28
2022-09-12T04:15:10.402Z,66.95
2022-09-12T04:17:37.010Z,54.72
2022-09-12T04:20:04.140Z,50.95
2022-09-12T04:22:31.999Z,48.70
2022-09-12T04:24:58.554Z,53.95
2022-09-12T04:27:25.203Z,52.42
2022-09-12T04:29:51.879Z,46.10
2022-09-12T04:32:18.929Z,45.75
2022-09-12T04:34:47.057Z,45.95
2022-09-12T04:37:13.708Z,45.85
2022-09-12T04:39:41.325Z,43.25
2022-09-12T04:42:07.946Z,36.90
2022-09-12T04:44:34.558Z,34.75
2022-09-12T04:47:01.134Z,35.60
2022-09-12T04:49:27.760Z,37.83
2022-09-12T04:51:55.207Z,34.88
2022-09-12T04:54:21.783Z,40.50
2022-09-12T04:56:50.228Z,33.03
2022-09-12T04:59:21.492Z,29.83
2022-09-12T05:01:48.769Z,31.65
2022-09-12T05:04:15.843Z,26.25
2022-09-12T05:06:43.071Z,27.25
2022-09-12T05:09:12.443Z,26.63
2022-09-12T05:12:03.233Z,27.63
2022-09-12T05:14:33.071Z,32.85
2022-09-12T05:17:01.657Z,37.45
2022-09-12T05:19:30.367Z,37.45
2022-09-12T05:21:57.245Z,29.83
2022-09-12T05:24:24.754Z,39.47
2022-09-12T05:26:51.345Z,36.85
2022-09-12T05:29:17.996Z,36.50
2022-09-12T05:31:44.642Z,52.55
2022-09-12T05:34:11.374Z,47.10
2022-09-12T05:36:38.619Z,53.88
2022-09-12T05:39:05.666Z,110.32
2022-09-12T05:41:33.934Z,78.90
2022-09-12T05:44:03.009Z,88.75
2022-09-12T05:46:32.747Z,40.65
2022-09-12T05:49:04.501Z,77.57
2022-09-12T05:51:34.328Z,60.75
2022-09-12T05:54:05.802Z,57.55
2022-09-12T05:56:34.995Z,42.03
2022-09-12T05:59:04.805Z,62.20
2022-09-12T06:01:33.376Z,61.10
2022-09-12T06:04:03.341Z,76.47
2022-09-12T06:06:31.507Z,94.68
2022-09-12T06:09:00.399Z,58.05
2022-09-12T06:11:28.900Z,54.80
2022-09-12T06:13:57.460Z,55.30
2022-09-12T06:16:26.803Z,89.13
2022-09-12T06:18:55.850Z,138.57
2022-09-12T06:21:24.362Z,214.43
2022-09-12T06:23:51.266Z,462.45
2022-09-12T06:26:21.662Z,361.10
2022-09-12T06:28:48.302Z,264.95
2022-09-12T06:31:17.686Z,70.57
2022-09-12T06:33:47.403Z,73.80
2022-09-12T06:36:16.491Z,242.45
2022-09-12T06:38:43.296Z,109.43
2022-09-12T06:41:12.475Z,186.35
2022-09-12T06:43:40.734Z,258.08
2022-09-12T06:46:07.698Z,378.98
2022-09-12T06:48:36.463Z,76.95
2022-09-12T06:51:13.475Z,123.15
2022-09-12T06:53:40.271Z,241.52
2022-09-12T06:56:10.217Z,233.52
2022-09-12T06:58:37.196Z,176.18
2022-09-12T07:01:09.597Z,168.70
2022-09-12T07:03:37.358Z,268.90
2022-09-12T07:06:09.555Z,260.95
2022-09-12T07:08:37.425Z,256.77
2022-09-12T07:11:15.362Z,103.80
2022-09-12T07:13:43.334Z,185.95
2022-09-12T07:16:13.027Z,266.67
2022-09-12T07:18:43.612Z,243.05
2022-09-12T07:21:12.973Z,212.80
2022-09-12T07:23:40.721Z,247.93
2022-09-12T07:26:09.716Z,173.63
2022-09-12T07:28:37.021Z,139.02
2022-09-12T07:31:07.803Z,122.68
2022-09-12T07:33:34.939Z,72.30
2022-09-12T07:36:03.903Z,65.00
2022-09-12T07:38:31.034Z,86.90
2022-09-12T07:40:57.966Z,82.13
2022-09-12T07:43:25.247Z,77.78
2022-09-12T07:45:56.237Z,69.03
2022-09-12T07:48:23.285Z,55.40
2022-09-12T07:51:00.619Z,69.93
2022-09-12T07:53:32.423Z,63.85
2022-09-12T07:55:59.030Z,68.57
2022-09-12T07:58:25.621Z,59.13
2022-09-12T08:00:52.424Z,67.57
2022-09-12T08:03:19.055Z,62.20
2022-09-12T08:05:45.737Z,45.35
2022-09-12T08:08:12.386Z,52.70
2022-09-12T08:10:39.057Z,46.58
2022-09-12T08:13:05.605Z,49.50
2022-09-12T08:15:32.276Z,47.35
2022-09-12T08:17:58.849Z,44.53
2022-09-12T08:20:28.368Z,46.38
2022-09-12T08:22:55.160Z,43.78
2022-09-12T08:25:21.874Z,36.45
2022-09-12T08:27:48.456Z,38.78
2022-09-12T08:30:15.154Z,37.25
2022-09-12T08:32:41.755Z,35.90
2022-09-12T08:35:08.461Z,35.38
2022-09-12T08:37:35.000Z,39.83
2022-09-12T08:40:01.903Z,35.05
2022-09-12T08:42:57.690Z,31.08
2022-09-12T08:45:36.837Z,32.70
2022-09-12T08:48:06.005Z,32.95
2022-09-12T08:50:32.659Z,30.90
2022-09-12T08:53:04.685Z,31.80
2022-09-12T08:55:35.504Z,32.67
2022-09-12T08:58:12.102Z,33.00
2022-09-12T09:00:48.906Z,36.20
2022-09-12T09:03:44.450Z,28.10
2022-09-12T09:06:35.418Z,27.73
2022-09-12T09:09:29.990Z,27.08
2022-09-12T09:12:23.821Z,28.30
2022-09-12T09:15:13.198Z,22.63
2022-09-12T09:17:50.356Z,28.00
2022-09-12T09:20:54.295Z,26.27
2022-09-12T09:23:27.467Z,25.25
2022-09-12T09:25:59.651Z,26.88
2022-09-12T09:28:52.854Z,25.75
2022-09-12T09:31:24.821Z,24.55
2022-09-12T09:33:54.222Z,23.67
2022-09-12T09:36:47.266Z,24.05
2022-09-12T09:39:16.616Z,30.08
2022-09-12T09:42:03.821Z,27.23
2022-09-12T09:44:31.398Z,24.02
2022-09-12T09:46:59.658Z,26.25
2022-09-12T09:49:33.326Z,22.70
2022-09-12T09:52:01.164Z,24.35
2022-09-12T09:54:36.434Z,23.70
2022-09-12T09:57:05.177Z,26.20
2022-09-12T09:59:36.788Z,22.42
2022-09-12T10:02:12.202Z,20.10
2022-09-12T10:04:53.982Z,22.92
2022-09-12T10:07:22.235Z,22.80
2022-09-12T10:10:15.141Z,22.63
2022-09-12T10:12:41.867Z,19.50
2022-09-12T10:15:26.209Z,22.15
2022-09-12T10:17:55.464Z,17.42
2022-09-12T10:20:40.588Z,19.73
2022-09-12T10:23:19.633Z,20.50
2022-09-12T10:25:56.509Z,18.75
2022-09-12T10:28:31.289Z,18.48
2022-09-12T10:31:00.080Z,16.05
2022-09-12T10:33:27.786Z,19.05
2022-09-12T10:35:55.854Z,19.15
2022-09-12T10:38:27.788Z,23.33
2022-09-12T10:41:09.658Z,16.92
2022-09-12T10:43:38.869Z,17.75
2022-09-12T10:46:17.451Z,18.98
2022-09-12T10:48:46.098Z,16.48
2022-09-12T10:51:24.612Z,15.18
2022-09-12T10:54:06.445Z,15.20
2022-09-12T10:56:38.931Z,15.82
2022-09-12T10:59:34.329Z,17.20
2022-09-12T11:02:10.420Z,19.15
2022-09-12T11:04:52.309Z,13.68
2022-09-12T11:07:29.680Z,17.08
2022-09-12T11:10:38.792Z,16.73
2022-09-12T11:13:30.041Z,14.52
2022-09-12T11:16:08.319Z,18.98
2022-09-12T11:18:53.837Z,13.27
2022-09-12T11:21:39.645Z,18.80
2022-09-12T11:24:23.676Z,12.43
2022-09-12T11:29:48.134Z,14.27
2022-09-12T11:32:49.102Z,9.70
2022-09-12T11:35:17.653Z,12.32
2022-09-12T11:37:56.302Z,12.90
2022-09-12T11:40:55.707Z,12.70
2022-09-12T11:43:34.468Z,10.98
2022-09-12T11:46:12.102Z,14.55
2022-09-12T11:48:55.595Z,10.30
2022-09-12T11:51:30.554Z,14.63
2022-09-12T11:54:09.301Z,15.75
2022-09-12T11:56:40.557Z,14.57
2022-09-12T11:59:15.597Z,11.32
2022-09-12T12:01:48.483Z,11.45
2022-09-12T12:04:20.659Z,16.70
2022-09-12T12:06:54.853Z,10.38
2022-09-12T12:09:21.482Z,9.90
2022-09-12T12:11:53.741Z,11.45
2022-09-12T12:14:25.071Z,10.98
2022-09-12T12:16:51.869Z,13.10
2022-09-12T12:19:18.453Z,11.52
2022-09-12T12:21:45.803Z,11.55
2022-09-12T12:24:15.569Z,11.35
2022-09-12T12:26:42.460Z,11.48
2022-09-12T12:29:18.215Z,11.63
2022-09-12T12:31:59.918Z,9.00
2022-09-12T12:34:41.095Z,11.50
2022-09-12T12:37:19.727Z,9.63
2022-09-12T12:39:50.082Z,10.60
2022-09-12T12:42:35.109Z,11.52
2022-09-12T12:45:08.588Z,9.40
2022-09-12T12:47:37.931Z,11.43
2022-09-12T12:50:10.702Z,9.00
2022-09-12T12:52:57.662Z,7.35
2022-09-12T12:55:42.559Z,5.50
2022-09-12T12:58:37.227Z,6.78
2022-09-12T13:01:09.691Z,5.07
2022-09-12T13:03:38.268Z,4.63
2022-09-12T13:06:08.161Z,7.88
2022-09-12T13:08:39.080Z,6.68
2022-09-12T13:11:11.048Z,6.07
2022-09-12T13:13:53.702Z,5.53
2022-09-12T13:16:34.782Z,7.95
2022-09-12T13:19:18.000Z,5.35
2022-09-12T13:22:00.424Z,9.10
2022-09-12T13:24:27.171Z,5.80
2022-09-12T13:26:54.008Z,6.15
2022-09-12T13:29:23.272Z,6.40
2022-09-12T13:31:54.477Z,5.90
2022-09-12T13:34:24.823Z,5.03
2022-09-12T13:37:22.409Z,7.05
2022-09-12T13:39:55.673Z,5.28
2022-09-12T13:42:37.216Z,7.60
2022-09-12T13:45:06.844Z,5.22
2022-09-12T13:47:36.915Z,6.18
2022-09-12T13:50:05.930Z,8.52
2022-09-12T13:52:34.509Z,9.18
2022-09-12T13:55:05.473Z,5.80
2022-09-12T13:57:39.616Z,5.78
2022-09-12T14:00:16.226Z,6.10
2022-09-12T14:02:42.893Z,6.65
2022-09-12T14:05:19.869Z,7.20
2022-09-12T14:07:53.372Z,5.88
2022-09-12T14:10:33.162Z,5.97
2022-09-12T14:13:02.714Z,6.80
2022-09-12T14:15:32.700Z,5.82
2022-09-12T14:18:01.821Z,5.85
2022-09-12T14:23:12.476Z,8.85
2022-09-12T14:25:46.047Z,7.07
2022-09-12T14:28:14.677Z,6.00
2022-09-12T14:30:41.330Z,6.90
2022-09-12T14:33:10.895Z,7.25
2022-09-12T14:35:43.435Z,8.05
2022-09-12T14:38:16.562Z,6.03
2022-09-12T14:40:49.005Z,6.13
2022-09-12T14:43:20.147Z,5.90
2022-09-12T14:45:54.583Z,7.30
2022-09-12T14:48:21.359Z,8.23
2022-09-12T14:50:53.306Z,8.10
2022-09-12T14:53:22.488Z,5.95
2022-09-12T14:55:57.501Z,7.72
2022-09-12T14:58:26.638Z,7.43
2022-09-12T15:00:56.198Z,9.75
2022-09-12T15:03:30.236Z,9.98
2022-09-12T15:05:57.392Z,5.25
2022-09-12T15:08:25.047Z,6.43
2022-09-12T15:10:51.646Z,9.00
2022-09-12T15:13:21.380Z,7.00
2022-09-12T15:15:50.742Z,4.88
2022-09-12T15:18:18.867Z,7.00
2022-09-12T15:20:47.575Z,5.88
2022-09-12T15:23:29.462Z,6.70
2022-09-12T15:25:56.048Z,6.45
2022-09-12T15:28:23.848Z,4.38
2022-09-12T15:30:53.019Z,5.57
2022-09-12T15:33:22.902Z,7.28
2022-09-12T15:35:50.247Z,7.00
2022-09-12T15:38:16.970Z,9.52
2022-09-12T15:40:43.526Z,4.93
2022-09-12T15:43:13.353Z,4.43
2022-09-12T15:45:43.585Z,4.57
2022-09-12T15:48:10.310Z,5.15
2022-09-12T15:50:36.989Z,4.65
2022-09-12T15:53:03.544Z,8.95
2022-09-12T15:55:32.253Z,13.65
2022-09-12T15:58:02.532Z,9.80
2022-09-12T16:00:32.938Z,4.50
2022-09-12T16:02:59.562Z,3.80
2022-09-12T16:05:26.810Z,3.92
2022-09-12T16:07:54.869Z,4.57
2022-09-12T16:10:24.057Z,5.18
2022-09-12T16:12:51.462Z,5.45
2022-09-12T16:15:21.370Z,4.80
2022-09-12T16:17:48.624Z,7.43
2022-09-12T16:20:15.189Z,6.28
2022-09-12T16:22:42.585Z,4.72
2022-09-12T16:25:09.724Z,7.20
2022-09-12T16:27:37.080Z,4.75
2022-09-12T16:30:06.136Z,8.75
2022-09-12T16:32:33.181Z,3.35
2022-09-12T16:35:00.163Z,4.38
2022-09-12T16:37:26.724Z,5.82
2022-09-12T16:39:53.664Z,4.38
2022-09-12T16:42:20.371Z,4.45
2022-09-12T16:44:47.091Z,4.85
2022-09-12T16:47:14.609Z,5.15
2022-09-12T16:49:41.172Z,7.47
2022-09-12T16:52:08.231Z,4.40
2022-09-12T16:54:34.907Z,5.53
2022-09-12T16:57:01.651Z,4.28
2022-09-12T16:59:28.189Z,6.22
2022-09-12T17:01:54.784Z,5.38
2022-09-12T17:04:23.685Z,5.38
2022-09-12T17:06:50.494Z,4.25
2022-09-12T17:09:18.704Z,5.43
2022-09-12T17:11:47.602Z,4.53
2022-09-12T17:14:14.352Z,7.55
2022-09-12T17:16:46.913Z,5.85
2022-09-12T17:19:26.687Z,4.25
2022-09-12T17:21:54.068Z,4.25
2022-09-12T17:24:20.986Z,5.28
2022-09-12T17:26:47.606Z,5.72
2022-09-12T17:29:15.088Z,5.18
2022-09-12T17:31:42.312Z,4.95
2022-09-12T17:34:09.710Z,5.95
2022-09-12T17:36:36.507Z,8.27
2022-09-12T17:39:04.235Z,7.35
2022-09-12T17:41:33.779Z,6.32
2022-09-12T17:44:02.655Z,5.43
2022-09-12T17:46:36.428Z,6.90
2022-09-12T17:49:06.166Z,8.05
2022-09-12T17:51:33.053Z,7.10
2022-09-12T17:54:06.725Z,6.82
2022-09-12T17:56:35.010Z,5.38
2022-09-12T17:59:01.890Z,6.28
2022-09-12T18:01:47.928Z,5.68
2022-09-12T18:04:14.664Z,7.93
2022-09-12T18:06:47.793Z,9.90
2022-09-12T18:09:16.424Z,7.22
2022-09-12T18:11:43.170Z,6.30
2022-09-12T18:14:13.884Z,6.88
2022-09-12T18:16:41.228Z,6.65
2022-09-12T18:19:07.800Z,7.53
2022-09-12T18:21:34.457Z,6.45
2022-09-12T18:24:01.537Z,6.43
2022-09-12T18:26:29.035Z,8.20
2022-09-12T18:28:56.171Z,9.70
2022-09-12T18:31:26.126Z,9.23
2022-09-12T18:33:53.259Z,7.32
2022-09-12T18:36:20.987Z,10.10
2022-09-12T18:38:48.160Z,6.55
2022-09-12T18:41:18.417Z,7.28
2022-09-12T18:43:45.216Z,9.73
2022-09-12T18:46:14.823Z,6.20
2022-09-12T18:48:42.023Z,8.70
2022-09-12T18:51:20.432Z,6.18
2022-09-12T18:53:52.992Z,8.50
2022-09-12T18:56:20.506Z,6.03
2022-09-12T18:58:51.050Z,7.57
2022-09-12T19:01:20.662Z,7.00
2022-09-12T19:03:47.874Z,5.95
2022-09-12T19:06:20.196Z,9.75
2022-09-12T19:08:47.878Z,8.45
2022-09-12T19:11:18.685Z,7.72
2022-09-12T19:13:46.630Z,7.50
2022-09-12T19:16:16.489Z,11.88
2022-09-12T19:18:43.633Z,6.90
2022-09-12T19:21:22.771Z,10.43
2022-09-12T19:23:49.708Z,13.00
2022-09-12T19:26:17.818Z,8.75
2022-09-12T19:28:45.360Z,7.47
2022-09-12T19:31:14.607Z,9.40
2022-09-12T19:33:41.830Z,10.45
2022-09-12T19:36:27.589Z,6.35
2022-09-12T19:38:59.017Z,8.98
2022-09-12T19:41:25.596Z,9.85
2022-09-12T19:43:52.211Z,8.55
2022-09-12T19:46:20.945Z,10.07
2022-09-12T19:48:48.342Z,10.60
2022-09-12T19:51:15.919Z,10.07
2022-09-12T19:53:43.354Z,9.05
2022-09-12T19:56:11.952Z,11.60
2022-09-12T19:58:40.538Z,9.60
2022-09-12T20:01:30.306Z,9.02
2022-09-12T20:03:58.235Z,7.22
2022-09-12T20:06:26.053Z,10.25
2022-09-12T20:08:52.652Z,9.07
2022-09-12T20:11:20.875Z,10.55
2022-09-12T20:13:47.748Z,9.45
2022-09-12T20:16:21.370Z,8.50
2022-09-12T20:18:53.566Z,8.73
2022-09-12T20:21:24.954Z,9.65
2022-09-12T20:23:51.637Z,8.57
2022-09-12T20:26:20.270Z,9.77
2022-09-12T20:28:46.997Z,11.88
2022-09-12T20:31:15.624Z,9.60
2022-09-12T20:33:43.203Z,12.40
2022-09-12T20:36:12.599Z,8.73
2022-09-12T20:38:40.182Z,10.57
2022-09-12T20:41:09.794Z,10.73
2022-09-12T20:43:38.576Z,8.85
2022-09-12T20:46:12.532Z,12.30
2022-09-12T20:48:39.604Z,7.57
2022-09-12T20:51:07.342Z,9.18
2022-09-12T20:53:35.440Z,10.32
2022-09-12T20:56:03.275Z,14.68
2022-09-12T20:58:29.803Z,12.40
2022-09-12T21:00:56.577Z,10.75
2022-09-12T21:03:23.244Z,7.32
2022-09-12T21:05:49.850Z,9.10
2022-09-12T21:08:16.965Z,9.52
2022-09-12T21:10:44.743Z,11.00
2022-09-12T21:13:12.091Z,9.93
2022-09-12T21:15:39.988Z,8.23
2022-09-12T21:18:06.956Z,9.43
2022-09-12T21:20:33.980Z,8.70
2022-09-12T21:23:00.548Z,12.63
2022-09-12T21:25:28.954Z,8.88
2022-09-12T21:27:55.551Z,11.27
2022-09-12T21:30:22.433Z,8.80
2022-09-12T21:32:49.083Z,10.85
2022-09-12T21:35:15.844Z,14.68
2022-09-12T21:37:42.376Z,10.82
2022-09-12T21:40:09.303Z,14.13
2022-09-12T21:42:35.840Z,7.88
2022-09-12T21:45:02.429Z,10.20
2022-09-12T21:47:29.160Z,8.85
2022-09-12T21:49:55.771Z,12.18
2022-09-12T21:52:22.350Z,9.77
2022-09-12T21:54:48.908Z,9.57
2022-09-12T21:57:15.726Z,10.65
2022-09-12T21:59:42.420Z,10.90
2022-09-12T22:02:10.843Z,10.07
2022-09-12T22:04:37.480Z,8.73
2022-09-12T22:07:05.402Z,10.23
2022-09-12T22:09:32.922Z,10.73
2022-09-12T22:11:59.461Z,12.05
2022-09-12T22:14:26.252Z,14.20
2022-09-12T22:16:52.794Z,12.13
2022-09-12T22:19:19.682Z,13.52
2022-09-12T22:22:04.952Z,15.25
2022-09-12T22:24:31.621Z,13.98
2022-09-12T22:26:59.230Z,14.32
2022-09-12T22:29:26.846Z,14.98
2022-09-12T22:31:53.844Z,15.77
2022-09-12T22:34:20.474Z,13.50
2022-09-12T22:36:50.196Z,15.60
2022-09-12T22:39:16.752Z,14.25
2022-09-12T22:41:43.345Z,11.80
2022-09-12T22:44:10.807Z,16.40
2022-09-12T22:46:38.006Z,12.55
2022-09-12T22:49:05.828Z,13.88
2022-09-12T22:51:33.051Z,18.10
2022-09-12T22:53:59.991Z,13.70
2022-09-12T22:56:26.904Z,12.90
2022-09-12T22:58:54.134Z,12.02
2022-09-12T23:01:20.992Z,12.90
2022-09-12T23:03:47.714Z,16.25
2022-09-12T23:06:14.384Z,17.40
2022-09-12T23:08:41.486Z,13.18
2022-09-12T23:11:14.171Z,14.23
2022-09-12T23:13:48.621Z,12.35
2022-09-12T23:16:18.650Z,16.27
2022-09-12T23:18:45.661Z,13.23
2022-09-12T23:21:13.517Z,12.43
2022-09-12T23:23:40.703Z,13.98
2022-09-12T23:26:19.494Z,15.93
2022-09-12T23:28:54.268Z,15.50
2022-09-12T23:31:29.859Z,14.32
2022-09-12T23:33:58.866Z,14.27
2022-09-12T23:36:27.194Z,11.68
2022-09-12T23:38:54.873Z,16.80
2022-09-12T23:41:22.452Z,16.02
2022-09-12T23:43:49.022Z,19.73
2022-09-12T23:46:16.856Z,23.38
2022-09-12T23:48:44.122Z,12.85
2022-09-12T23:51:11.612Z,15.45
2022-09-12T23:53:38.738Z,16.50
2022-09-12T23:56:05.849Z,12.50
2022-09-12T23:58:32.384Z,14.20
